sensor_id;sensor_type;location;lat;lon;timestamp;pressure;altitude;pressure_sealevel;temperature;humidity
72959;BME280;60008;50.826;6.896;2023-07-13T00:00:09;100897.88;;;17.84;100.00
72959;BME280;60008;50.826;6.896;2023-07-13T00:03:02;100904.28;;;17.76;100.00
72959;BME280;60008;50.826;6.896;2023-07-13T00:05:57;100906.09;;;17.69;100.00
72959;BME280;60008;50.826;6.896;2023-07-13T00:08:49;100897.84;;;17.64;100.00
72959;BME280;60008;50.826;6.896;2023-07-13T00:11:40;100890.22;;;17.68;100.00
72959;BME280;60008;50.826;6.896;2023-07-13T00:14:27;100907.31;;;17.67;100.00
72959;BME280;60008;50.826;6.896;2023-07-13T00:17:19;100903.84;;;17.66;100.00
72959;BME280;60008;50.826;6.896;2023-07-13T00:20:05;100899.31;;;17.73;100.00
72959;BME280;60008;50.826;6.896;2023-07-13T00:22:56;100906.47;;;17.53;100.00
72959;BME280;60008;50.826;6.896;2023-07-13T00:25:49;100911.03;;;17.59;100.00
72959;BME280;60008;50.826;6.896;2023-07-13T00:28:35;100907.91;;;17.56;100.00
72959;BME280;60008;50.826;6.896;2023-07-13T00:31:27;100911.63;;;17.55;100.00
72959;BME280;60008;50.826;6.896;2023-07-13T00:34:18;100903.78;;;17.53;100.00
72959;BME280;60008;50.826;6.896;2023-07-13T00:37:09;100899.44;;;17.52;100.00
72959;BME280;60008;50.826;6.896;2023-07-13T00:39:56;100897.06;;;17.30;100.00
72959;BME280;60008;50.826;6.896;2023-07-13T00:42:47;100898.75;;;17.37;100.00
72959;BME280;60008;50.826;6.896;2023-07-13T00:48:26;100893.75;;;17.21;100.00
72959;BME280;60008;50.826;6.896;2023-07-13T00:51:12;100892.50;;;17.17;100.00
72959;BME280;60008;50.826;6.896;2023-07-13T00:54:06;100891.84;;;17.08;100.00
72959;BME280;60008;50.826;6.896;2023-07-13T00:56:56;100891.06;;;17.21;100.00
72959;BME280;60008;50.826;6.896;2023-07-13T00:59:55;100884.47;;;17.23;100.00
72959;BME280;60008;50.826;6.896;2023-07-13T01:02:48;100891.47;;;17.18;100.00
72959;BME280;60008;50.826;6.896;2023-07-13T01:05:41;100893.13;;;17.19;100.00
72959;BME280;60008;50.826;6.896;2023-07-13T01:08:39;100893.25;;;17.04;100.00
72959;BME280;60008;50.826;6.896;2023-07-13T01:11:31;100895.09;;;16.97;100.00
72959;BME280;60008;50.826;6.896;2023-07-13T01:14:16;100900.84;;;16.94;100.00
72959;BME280;60008;50.826;6.896;2023-07-13T01:17:09;100896.25;;;16.88;100.00
72959;BME280;60008;50.826;6.896;2023-07-13T01:19:55;100898.94;;;16.88;100.00
72959;BME280;60008;50.826;6.896;2023-07-13T01:22:46;100895.69;;;16.93;100.00
72959;BME280;60008;50.826;6.896;2023-07-13T01:25:31;100896.66;;;16.85;100.00
72959;BME280;60008;50.826;6.896;2023-07-13T01:28:23;100890.88;;;16.82;100.00
72959;BME280;60008;50.826;6.896;2023-07-13T01:31:12;100900.38;;;16.84;100.00
72959;BME280;60008;50.826;6.896;2023-07-13T01:34:03;100893.56;;;16.82;100.00
72959;BME280;60008;50.826;6.896;2023-07-13T01:36:48;100895.56;;;16.73;100.00
72959;BME280;60008;50.826;6.896;2023-07-13T01:39:40;100892.66;;;16.68;100.00
72959;BME280;60008;50.826;6.896;2023-07-13T01:42:25;100898.41;;;16.65;100.00
72959;BME280;60008;50.826;6.896;2023-07-13T01:45:17;100895.66;;;16.58;100.00
72959;BME280;60008;50.826;6.896;2023-07-13T01:48:03;100882.91;;;16.60;100.00
72959;BME280;60008;50.826;6.896;2023-07-13T01:50:54;100881.50;;;16.64;100.00
72959;BME280;60008;50.826;6.896;2023-07-13T01:53:39;100887.31;;;16.68;100.00
72959;BME280;60008;50.826;6.896;2023-07-13T01:56:30;100887.88;;;16.63;100.00
72959;BME280;60008;50.826;6.896;2023-07-13T01:59:15;100899.84;;;16.67;100.00
72959;BME280;60008;50.826;6.896;2023-07-13T02:02:07;100900.13;;;16.51;100.00
72959;BME280;60008;50.826;6.896;2023-07-13T02:04:52;100903.28;;;16.55;100.00
72959;BME280;60008;50.826;6.896;2023-07-13T02:07:45;100897.84;;;16.48;100.00
72959;BME280;60008;50.826;6.896;2023-07-13T02:10:37;100899.56;;;16.56;100.00
72959;BME280;60008;50.826;6.896;2023-07-13T02:13:29;100905.75;;;16.56;100.00
72959;BME280;60008;50.826;6.896;2023-07-13T02:16:14;100915.03;;;16.60;100.00
72959;BME280;60008;50.826;6.896;2023-07-13T02:19:07;100908.88;;;16.60;100.00
72959;BME280;60008;50.826;6.896;2023-07-13T02:21:52;100900.13;;;16.51;100.00
72959;BME280;60008;50.826;6.896;2023-07-13T02:24:43;100898.84;;;16.47;100.00
72959;BME280;60008;50.826;6.896;2023-07-13T02:27:28;100907.47;;;16.43;100.00
72959;BME280;60008;50.826;6.896;2023-07-13T02:30:19;100906.25;;;16.45;100.00
72959;BME280;60008;50.826;6.896;2023-07-13T02:33:05;100913.44;;;16.45;100.00
72959;BME280;60008;50.826;6.896;2023-07-13T02:35:56;100908.06;;;16.38;100.00
72959;BME280;60008;50.826;6.896;2023-07-13T02:38:41;100917.69;;;16.33;100.00
72959;BME280;60008;50.826;6.896;2023-07-13T02:41:32;100909.84;;;16.31;100.00
72959;BME280;60008;50.826;6.896;2023-07-13T02:44:24;100903.78;;;16.23;100.00
72959;BME280;60008;50.826;6.896;2023-07-13T02:47:16;100907.28;;;16.23;100.00
72959;BME280;60008;50.826;6.896;2023-07-13T02:50:02;100902.47;;;16.12;100.00
72959;BME280;60008;50.826;6.896;2023-07-13T02:52:53;100900.50;;;16.21;100.00
72959;BME280;60008;50.826;6.896;2023-07-13T02:55:38;100899.66;;;16.20;100.00
72959;BME280;60008;50.826;6.896;2023-07-13T02:58:32;100904.84;;;16.00;100.00
72959;BME280;60008;50.826;6.896;2023-07-13T03:01:17;100912.34;;;16.12;100.00
72959;BME280;60008;50.826;6.896;2023-07-13T03:04:10;100915.41;;;16.08;100.00
72959;BME280;60008;50.826;6.896;2023-07-13T03:07:09;100917.63;;;16.05;100.00
72959;BME280;60008;50.826;6.896;2023-07-13T03:09:58;100909.63;;;16.05;100.00
72959;BME280;60008;50.826;6.896;2023-07-13T03:12:49;100910.88;;;16.09;100.00
72959;BME280;60008;50.826;6.896;2023-07-13T03:15:41;100915.97;;;16.04;100.00
72959;BME280;60008;50.826;6.896;2023-07-13T03:18:32;100924.31;;;15.94;100.00
72959;BME280;60008;50.826;6.896;2023-07-13T03:21:17;100917.81;;;15.82;100.00
72959;BME280;60008;50.826;6.896;2023-07-13T03:24:09;100928.00;;;15.72;100.00
72959;BME280;60008;50.826;6.896;2023-07-13T03:26:54;100928.63;;;15.74;100.00
72959;BME280;60008;50.826;6.896;2023-07-13T03:29:46;100929.41;;;15.89;100.00
72959;BME280;60008;50.826;6.896;2023-07-13T03:32:37;100934.25;;;16.00;100.00
72959;BME280;60008;50.826;6.896;2023-07-13T03:35:28;100930.56;;;15.80;100.00
72959;BME280;60008;50.826;6.896;2023-07-13T03:38:13;100928.13;;;15.85;100.00
72959;BME280;60008;50.826;6.896;2023-07-13T03:41:04;100944.16;;;15.85;100.00
72959;BME280;60008;50.826;6.896;2023-07-13T03:43:50;100937.63;;;15.88;100.00
72959;BME280;60008;50.826;6.896;2023-07-13T03:46:41;100950.81;;;15.89;100.00
72959;BME280;60008;50.826;6.896;2023-07-13T03:49:26;100949.47;;;15.79;100.00
72959;BME280;60008;50.826;6.896;2023-07-13T03:52:17;100946.44;;;15.67;100.00
72959;BME280;60008;50.826;6.896;2023-07-13T03:55:02;100953.06;;;15.71;100.00
72959;BME280;60008;50.826;6.896;2023-07-13T03:57:59;100952.06;;;15.72;100.00
72959;BME280;60008;50.826;6.896;2023-07-13T04:00:44;100948.75;;;15.70;100.00
72959;BME280;60008;50.826;6.896;2023-07-13T04:03:36;100952.25;;;15.71;100.00
72959;BME280;60008;50.826;6.896;2023-07-13T04:06:25;100951.69;;;15.61;100.00
72959;BME280;60008;50.826;6.896;2023-07-13T04:09:24;100954.31;;;15.54;100.00
72959;BME280;60008;50.826;6.896;2023-07-13T04:12:09;100962.97;;;15.56;100.00
72959;BME280;60008;50.826;6.896;2023-07-13T04:15:01;100958.56;;;15.48;100.00
72959;BME280;60008;50.826;6.896;2023-07-13T04:17:46;100958.81;;;15.54;100.00
72959;BME280;60008;50.826;6.896;2023-07-13T04:20:38;100955.66;;;15.65;100.00
72959;BME280;60008;50.826;6.896;2023-07-13T04:23:23;100950.75;;;15.68;100.00
72959;BME280;60008;50.826;6.896;2023-07-13T04:26:15;100965.03;;;15.75;100.00
72959;BME280;60008;50.826;6.896;2023-07-13T04:29:01;100975.31;;;15.57;100.00
72959;BME280;60008;50.826;6.896;2023-07-13T04:31:54;100968.66;;;15.68;100.00
72959;BME280;60008;50.826;6.896;2023-07-13T04:34:39;100966.00;;;15.68;100.00
72959;BME280;60008;50.826;6.896;2023-07-13T04:37:31;100963.94;;;15.70;100.00
72959;BME280;60008;50.826;6.896;2023-07-13T04:40:17;100967.88;;;15.74;100.00
72959;BME280;60008;50.826;6.896;2023-07-13T04:43:08;100970.91;;;15.85;100.00
72959;BME280;60008;50.826;6.896;2023-07-13T04:45:53;100965.00;;;16.32;100.00
72959;BME280;60008;50.826;6.896;2023-07-13T04:48:46;100965.97;;;16.25;100.00
72959;BME280;60008;50.826;6.896;2023-07-13T04:51:37;100964.75;;;16.06;100.00
72959;BME280;60008;50.826;6.896;2023-07-13T04:54:22;100964.94;;;16.04;100.00
72959;BME280;60008;50.826;6.896;2023-07-13T04:57:14;100967.56;;;15.98;100.00
72959;BME280;60008;50.826;6.896;2023-07-13T04:59:59;100970.16;;;15.91;100.00
72959;BME280;60008;50.826;6.896;2023-07-13T05:02:57;100977.47;;;16.04;100.00
72959;BME280;60008;50.826;6.896;2023-07-13T05:05:54;100970.63;;;16.16;100.00
72959;BME280;60008;50.826;6.896;2023-07-13T05:08:51;100971.00;;;16.13;100.00
72959;BME280;60008;50.826;6.896;2023-07-13T05:11:43;100975.19;;;16.22;100.00
72959;BME280;60008;50.826;6.896;2023-07-13T05:14:29;100974.25;;;16.30;100.00
72959;BME280;60008;50.826;6.896;2023-07-13T05:17:20;100985.31;;;16.27;100.00
72959;BME280;60008;50.826;6.896;2023-07-13T05:20:12;100983.72;;;16.32;100.00
72959;BME280;60008;50.826;6.896;2023-07-13T05:22:57;100984.22;;;16.42;100.00
72959;BME280;60008;50.826;6.896;2023-07-13T05:25:48;100991.69;;;16.47;100.00
72959;BME280;60008;50.826;6.896;2023-07-13T05:28:33;100993.03;;;16.57;100.00
72959;BME280;60008;50.826;6.896;2023-07-13T05:31:24;100989.03;;;16.75;100.00
72959;BME280;60008;50.826;6.896;2023-07-13T05:34:09;100987.88;;;16.84;100.00
72959;BME280;60008;50.826;6.896;2023-07-13T05:37:01;100991.88;;;16.94;100.00
72959;BME280;60008;50.826;6.896;2023-07-13T05:39:46;100992.56;;;17.03;100.00
72959;BME280;60008;50.826;6.896;2023-07-13T05:42:37;100988.69;;;17.12;100.00
72959;BME280;60008;50.826;6.896;2023-07-13T05:45:22;100999.16;;;17.07;100.00
72959;BME280;60008;50.826;6.896;2023-07-13T05:48:15;101001.78;;;17.28;100.00
72959;BME280;60008;50.826;6.896;2023-07-13T05:51:01;100999.91;;;17.28;100.00
72959;BME280;60008;50.826;6.896;2023-07-13T05:53:53;100996.72;;;17.46;100.00
72959;BME280;60008;50.826;6.896;2023-07-13T05:56:37;100991.66;;;17.64;100.00
72959;BME280;60008;50.826;6.896;2023-07-13T05:59:29;101003.44;;;17.70;100.00
72959;BME280;60008;50.826;6.896;2023-07-13T06:02:14;101002.50;;;17.97;100.00
72959;BME280;60008;50.826;6.896;2023-07-13T06:05:06;101016.53;;;17.99;100.00
72959;BME280;60008;50.826;6.896;2023-07-13T06:07:57;101020.22;;;17.92;100.00
72959;BME280;60008;50.826;6.896;2023-07-13T06:10:48;101015.53;;;18.07;100.00
72959;BME280;60008;50.826;6.896;2023-07-13T06:13:39;101023.16;;;18.03;100.00
72959;BME280;60008;50.826;6.896;2023-07-13T06:16:30;101017.06;;;17.75;100.00
72959;BME280;60008;50.826;6.896;2023-07-13T06:19:15;101020.53;;;17.62;100.00
72959;BME280;60008;50.826;6.896;2023-07-13T06:22:07;101021.19;;;17.77;100.00
72959;BME280;60008;50.826;6.896;2023-07-13T06:24:52;101014.84;;;17.92;100.00
72959;BME280;60008;50.826;6.896;2023-07-13T06:27:44;101020.63;;;17.82;100.00
72959;BME280;60008;50.826;6.896;2023-07-13T06:30:29;101029.75;;;18.01;100.00
72959;BME280;60008;50.826;6.896;2023-07-13T06:33:20;101034.91;;;18.02;100.00
72959;BME280;60008;50.826;6.896;2023-07-13T06:36:12;101036.13;;;18.00;100.00
72959;BME280;60008;50.826;6.896;2023-07-13T06:39:04;101038.81;;;17.93;100.00
72959;BME280;60008;50.826;6.896;2023-07-13T06:41:55;101035.72;;;17.96;100.00
72959;BME280;60008;50.826;6.896;2023-07-13T06:44:40;101047.06;;;18.05;100.00
72959;BME280;60008;50.826;6.896;2023-07-13T06:47:31;101042.31;;;18.00;100.00
72959;BME280;60008;50.826;6.896;2023-07-13T06:50:18;101040.31;;;18.22;100.00
72959;BME280;60008;50.826;6.896;2023-07-13T06:53:10;101037.25;;;18.25;100.00
72959;BME280;60008;50.826;6.896;2023-07-13T06:55:56;101044.28;;;18.26;100.00
72959;BME280;60008;50.826;6.896;2023-07-13T06:58:47;101050.84;;;18.17;100.00
72959;BME280;60008;50.826;6.896;2023-07-13T07:01:32;101054.38;;;18.30;100.00
72959;BME280;60008;50.826;6.896;2023-07-13T07:04:25;101053.78;;;18.28;100.00
72959;BME280;60008;50.826;6.896;2023-07-13T07:07:10;101055.44;;;18.36;100.00
72959;BME280;60008;50.826;6.896;2023-07-13T07:10:03;101057.91;;;18.37;100.00
72959;BME280;60008;50.826;6.896;2023-07-13T07:12:48;101065.25;;;18.03;100.00
72959;BME280;60008;50.826;6.896;2023-07-13T07:15:40;101071.22;;;18.05;100.00
72959;BME280;60008;50.826;6.896;2023-07-13T07:18:32;101071.88;;;18.13;100.00
72959;BME280;60008;50.826;6.896;2023-07-13T07:21:17;101073.28;;;18.03;100.00
72959;BME280;60008;50.826;6.896;2023-07-13T07:24:09;101084.28;;;18.14;100.00
72959;BME280;60008;50.826;6.896;2023-07-13T07:26:54;101076.44;;;18.19;100.00
72959;BME280;60008;50.826;6.896;2023-07-13T07:29:48;101074.28;;;18.49;100.00
72959;BME280;60008;50.826;6.896;2023-07-13T07:32:34;101082.78;;;18.72;100.00
72959;BME280;60008;50.826;6.896;2023-07-13T07:35:28;101070.81;;;19.08;100.00
72959;BME280;60008;50.826;6.896;2023-07-13T07:38:17;101082.16;;;19.42;100.00
72959;BME280;60008;50.826;6.896;2023-07-13T07:41:09;101074.56;;;19.90;100.00
72959;BME280;60008;50.826;6.896;2023-07-13T07:43:57;101074.13;;;20.00;100.00
72959;BME280;60008;50.826;6.896;2023-07-13T07:46:48;101081.06;;;19.70;100.00
72959;BME280;60008;50.826;6.896;2023-07-13T07:49:35;101084.31;;;19.85;100.00
72959;BME280;60008;50.826;6.896;2023-07-13T07:52:27;101080.59;;;19.86;100.00
72959;BME280;60008;50.826;6.896;2023-07-13T07:55:12;101086.44;;;20.14;100.00
72959;BME280;60008;50.826;6.896;2023-07-13T07:58:06;101089.91;;;19.77;100.00
72959;BME280;60008;50.826;6.896;2023-07-13T08:01:11;101075.63;;;19.76;100.00
72959;BME280;60008;50.826;6.896;2023-07-13T08:04:06;101091.16;;;19.81;100.00
72959;BME280;60008;50.826;6.896;2023-07-13T08:07:11;101070.81;;;20.42;100.00
72959;BME280;60008;50.826;6.896;2023-07-13T08:10:02;101068.13;;;21.23;100.00
72959;BME280;60008;50.826;6.896;2023-07-13T08:12:47;101071.31;;;21.38;100.00
72959;BME280;60008;50.826;6.896;2023-07-13T08:15:42;101073.00;;;21.14;100.00
72959;BME280;60008;50.826;6.896;2023-07-13T08:18:27;101078.06;;;20.73;100.00
72959;BME280;60008;50.826;6.896;2023-07-13T08:21:21;101067.56;;;20.90;100.00
72959;BME280;60008;50.826;6.896;2023-07-13T08:24:06;101072.41;;;21.06;100.00
72959;BME280;60008;50.826;6.896;2023-07-13T08:26:58;101064.09;;;21.50;100.00
72959;BME280;60008;50.826;6.896;2023-07-13T08:29:50;101056.19;;;22.21;100.00
72959;BME280;60008;50.826;6.896;2023-07-13T08:32:42;101062.69;;;22.02;100.00
72959;BME280;60008;50.826;6.896;2023-07-13T08:35:33;101065.16;;;21.85;100.00
72959;BME280;60008;50.826;6.896;2023-07-13T08:38:18;101063.59;;;21.78;100.00
72959;BME280;60008;50.826;6.896;2023-07-13T08:41:13;101064.28;;;21.73;100.00
72959;BME280;60008;50.826;6.896;2023-07-13T08:44:00;101054.72;;;21.34;100.00
72959;BME280;60008;50.826;6.896;2023-07-13T08:46:56;101054.72;;;22.07;99.57
72959;BME280;60008;50.826;6.896;2023-07-13T08:49:44;101056.13;;;22.39;96.54
72959;BME280;60008;50.826;6.896;2023-07-13T08:52:38;101053.81;;;22.43;95.38
72959;BME280;60008;50.826;6.896;2023-07-13T08:55:31;101055.16;;;22.04;100.00
72959;BME280;60008;50.826;6.896;2023-07-13T08:58:25;101063.34;;;23.22;92.49
72959;BME280;60008;50.826;6.896;2023-07-13T09:01:28;101060.88;;;22.85;92.45
72959;BME280;60008;50.826;6.896;2023-07-13T09:04:19;101059.84;;;23.09;91.54
72959;BME280;60008;50.826;6.896;2023-07-13T09:07:46;101055.34;;;24.13;86.05
72959;BME280;60008;50.826;6.896;2023-07-13T09:10:53;101049.81;;;24.36;85.84
72959;BME280;60008;50.826;6.896;2023-07-13T09:17:20;101052.97;;;24.61;83.68
72959;BME280;60008;50.826;6.896;2023-07-13T09:20:22;101050.19;;;25.06;82.05
72959;BME280;60008;50.826;6.896;2023-07-13T09:23:20;101052.75;;;26.38;75.60
72959;BME280;60008;50.826;6.896;2023-07-13T09:26:20;101046.88;;;28.28;64.10
72959;BME280;60008;50.826;6.896;2023-07-13T09:29:18;101050.53;;;27.87;64.27
72959;BME280;60008;50.826;6.896;2023-07-13T09:32:13;101043.28;;;26.45;69.12
72959;BME280;60008;50.826;6.896;2023-07-13T09:34:59;101045.50;;;25.18;76.09
72959;BME280;60008;50.826;6.896;2023-07-13T09:37:53;101039.72;;;25.70;75.33
72959;BME280;60008;50.826;6.896;2023-07-13T09:46:54;101041.16;;;25.99;73.25
72959;BME280;60008;50.826;6.896;2023-07-13T09:49:47;101038.38;;;27.06;66.68
72959;BME280;60008;50.826;6.896;2023-07-13T09:52:41;101048.34;;;27.32;62.46
72959;BME280;60008;50.826;6.896;2023-07-13T09:55:34;101052.28;;;26.19;68.83
72959;BME280;60008;50.826;6.896;2023-07-13T09:58:30;101044.53;;;25.08;75.63
72959;BME280;60008;50.826;6.896;2023-07-13T10:01:36;101049.41;;;25.06;73.53
72959;BME280;60008;50.826;6.896;2023-07-13T10:04:33;101039.72;;;25.48;71.53
72959;BME280;60008;50.826;6.896;2023-07-13T10:07:22;101052.00;;;25.17;71.99
72959;BME280;60008;50.826;6.896;2023-07-13T10:10:22;101064.31;;;24.30;77.71
72959;BME280;60008;50.826;6.896;2023-07-13T10:13:25;101057.97;;;25.74;74.89
72959;BME280;60008;50.826;6.896;2023-07-13T10:16:17;101054.22;;;26.02;68.24
72959;BME280;60008;50.826;6.896;2023-07-13T10:19:26;101050.81;;;26.33;64.21
72959;BME280;60008;50.826;6.896;2023-07-13T10:22:29;101044.66;;;27.06;59.02
72959;BME280;60008;50.826;6.896;2023-07-13T10:25:23;101051.38;;;24.94;65.86
72959;BME280;60008;50.826;6.896;2023-07-13T10:28:30;101049.72;;;24.93;66.86
72959;BME280;60008;50.826;6.896;2023-07-13T10:31:17;101051.84;;;26.06;63.01
72959;BME280;60008;50.826;6.896;2023-07-13T10:34:11;101058.47;;;25.33;64.48
72959;BME280;60008;50.826;6.896;2023-07-13T10:37:05;101057.41;;;25.72;65.66
72959;BME280;60008;50.826;6.896;2023-07-13T10:39:55;101060.41;;;25.16;66.80
72959;BME280;60008;50.826;6.896;2023-07-13T10:42:49;101051.84;;;26.86;60.87
72959;BME280;60008;50.826;6.896;2023-07-13T10:45:45;101052.69;;;25.46;63.48
72959;BME280;60008;50.826;6.896;2023-07-13T10:48:31;101050.66;;;25.75;61.81
72959;BME280;60008;50.826;6.896;2023-07-13T10:51:26;101067.53;;;24.72;63.16
72959;BME280;60008;50.826;6.896;2023-07-13T10:54:18;101068.28;;;26.42;58.37
72959;BME280;60008;50.826;6.896;2023-07-13T10:57:19;101069.22;;;25.61;60.51
72959;BME280;60008;50.826;6.896;2023-07-13T11:00:15;101073.53;;;25.79;59.84
72959;BME280;60008;50.826;6.896;2023-07-13T11:03:13;101070.88;;;24.06;67.70
72959;BME280;60008;50.826;6.896;2023-07-13T11:06:32;101074.38;;;24.30;66.55
72959;BME280;60008;50.826;6.896;2023-07-13T11:09:31;101080.31;;;24.03;67.30
72959;BME280;60008;50.826;6.896;2023-07-13T11:15:47;101079.59;;;23.10;76.59
72959;BME280;60008;50.826;6.896;2023-07-13T11:18:39;101087.09;;;22.96;76.26
72959;BME280;60008;50.826;6.896;2023-07-13T11:21:28;101086.28;;;23.19;75.70
72959;BME280;60008;50.826;6.896;2023-07-13T11:24:21;101082.22;;;23.40;73.81
72959;BME280;60008;50.826;6.896;2023-07-13T11:27:22;101084.91;;;24.03;72.97
72959;BME280;60008;50.826;6.896;2023-07-13T11:30:22;101075.25;;;23.67;72.87
72959;BME280;60008;50.826;6.896;2023-07-13T11:33:22;101069.00;;;23.32;74.62
72959;BME280;60008;50.826;6.896;2023-07-13T11:36:16;101072.94;;;23.87;76.13
72959;BME280;60008;50.826;6.896;2023-07-13T11:39:18;101077.75;;;23.45;77.29
72959;BME280;60008;50.826;6.896;2023-07-13T11:42:13;101078.56;;;23.97;73.65
72959;BME280;60008;50.826;6.896;2023-07-13T11:45:18;101079.00;;;24.17;74.28
72959;BME280;60008;50.826;6.896;2023-07-13T11:48:30;101080.22;;;24.10;72.33
72959;BME280;60008;50.826;6.896;2023-07-13T11:51:29;101076.38;;;23.83;74.40
72959;BME280;60008;50.826;6.896;2023-07-13T12:00:17;101093.34;;;23.32;76.13
72959;BME280;60008;50.826;6.896;2023-07-13T12:03:11;101088.53;;;23.34;77.59
72959;BME280;60008;50.826;6.896;2023-07-13T12:06:01;101101.44;;;23.08;78.09
72959;BME280;60008;50.826;6.896;2023-07-13T12:09:03;101094.47;;;22.89;79.34
72959;BME280;60008;50.826;6.896;2023-07-13T12:11:48;101095.19;;;22.55;81.46
72959;BME280;60008;50.826;6.896;2023-07-13T12:14:40;101096.03;;;22.56;82.14
72959;BME280;60008;50.826;6.896;2023-07-13T12:17:34;101099.88;;;22.89;82.31
72959;BME280;60008;50.826;6.896;2023-07-13T12:20:27;101092.97;;;23.05;80.05
72959;BME280;60008;50.826;6.896;2023-07-13T12:23:23;101100.47;;;22.91;79.56
72959;BME280;60008;50.826;6.896;2023-07-13T12:26:17;101096.28;;;23.30;75.93
72959;BME280;60008;50.826;6.896;2023-07-13T12:29:16;101104.16;;;23.08;77.31
72959;BME280;60008;50.826;6.896;2023-07-13T12:32:09;101085.03;;;23.45;74.13
72959;BME280;60008;50.826;6.896;2023-07-13T12:35:16;101091.69;;;23.31;75.16
72959;BME280;60008;50.826;6.896;2023-07-13T12:38:08;101090.06;;;23.18;75.12
72959;BME280;60008;50.826;6.896;2023-07-13T12:41:02;101092.91;;;22.70;75.02
72959;BME280;60008;50.826;6.896;2023-07-13T12:43:54;101095.97;;;22.74;74.85
72959;BME280;60008;50.826;6.896;2023-07-13T12:46:39;101091.91;;;22.83;76.25
72959;BME280;60008;50.826;6.896;2023-07-13T12:49:41;101089.81;;;22.96;75.45
72959;BME280;60008;50.826;6.896;2023-07-13T12:52:34;101099.75;;;22.84;76.33
72959;BME280;60008;50.826;6.896;2023-07-13T12:55:26;101101.09;;;22.93;75.39
72959;BME280;60008;50.826;6.896;2023-07-13T12:58:21;101110.47;;;23.02;75.72
72959;BME280;60008;50.826;6.896;2023-07-13T13:01:17;101107.91;;;22.96;71.36
72959;BME280;60008;50.826;6.896;2023-07-13T13:04:09;101108.97;;;23.06;68.01
72959;BME280;60008;50.826;6.896;2023-07-13T13:07:04;101111.63;;;22.83;69.83
72959;BME280;60008;50.826;6.896;2023-07-13T13:10:13;101109.34;;;23.10;69.16
72959;BME280;60008;50.826;6.896;2023-07-13T13:12:58;101101.09;;;23.17;68.40
72959;BME280;60008;50.826;6.896;2023-07-13T13:15:50;101102.41;;;23.49;68.23
72959;BME280;60008;50.826;6.896;2023-07-13T13:18:43;101090.03;;;23.64;68.43
72959;BME280;60008;50.826;6.896;2023-07-13T13:21:34;101078.91;;;23.38;72.54
72959;BME280;60008;50.826;6.896;2023-07-13T13:24:24;101078.91;;;23.38;72.27
72959;BME280;60008;50.826;6.896;2023-07-13T13:27:20;101093.03;;;23.40;73.13
72959;BME280;60008;50.826;6.896;2023-07-13T13:30:13;101089.34;;;23.57;73.07
72959;BME280;60008;50.826;6.896;2023-07-13T13:33:10;101074.78;;;23.58;72.96
72959;BME280;60008;50.826;6.896;2023-07-13T13:36:03;101072.53;;;23.09;74.33
72959;BME280;60008;50.826;6.896;2023-07-13T13:38:50;101080.44;;;23.45;73.21
72959;BME280;60008;50.826;6.896;2023-07-13T13:41:42;101082.03;;;23.35;69.85
72959;BME280;60008;50.826;6.896;2023-07-13T13:44:34;101079.22;;;23.64;66.69
72959;BME280;60008;50.826;6.896;2023-07-13T13:47:32;101076.97;;;23.73;66.12
72959;BME280;60008;50.826;6.896;2023-07-13T13:50:25;101076.44;;;24.39;64.76
72959;BME280;60008;50.826;6.896;2023-07-13T13:53:11;101074.78;;;24.10;63.37
72959;BME280;60008;50.826;6.896;2023-07-13T13:56:04;101063.97;;;23.98;64.44
72959;BME280;60008;50.826;6.896;2023-07-13T13:58:56;101062.38;;;23.86;61.17
72959;BME280;60008;50.826;6.896;2023-07-13T14:01:49;101072.09;;;23.98;63.77
72959;BME280;60008;50.826;6.896;2023-07-13T14:04:34;101064.25;;;23.85;63.14
72959;BME280;60008;50.826;6.896;2023-07-13T14:07:26;101071.34;;;23.63;64.11
72959;BME280;60008;50.826;6.896;2023-07-13T14:10:18;101068.06;;;24.12;62.87
72959;BME280;60008;50.826;6.896;2023-07-13T14:13:24;101073.97;;;24.09;62.38
72959;BME280;60008;50.826;6.896;2023-07-13T14:16:12;101072.81;;;24.34;62.28
72959;BME280;60008;50.826;6.896;2023-07-13T14:19:09;101070.34;;;24.32;61.67
72959;BME280;60008;50.826;6.896;2023-07-13T14:21:55;101070.22;;;24.27;62.36
72959;BME280;60008;50.826;6.896;2023-07-13T14:24:46;101071.66;;;23.78;64.55
72959;BME280;60008;50.826;6.896;2023-07-13T14:27:32;101074.66;;;24.05;63.08
72959;BME280;60008;50.826;6.896;2023-07-13T14:30:24;101058.44;;;23.93;61.99
72959;BME280;60008;50.826;6.896;2023-07-13T14:33:11;101070.22;;;23.87;61.27
72959;BME280;60008;50.826;6.896;2023-07-13T14:36:26;101071.66;;;24.30;61.37
72959;BME280;60008;50.826;6.896;2023-07-13T14:39:20;101077.97;;;23.95;60.62
72959;BME280;60008;50.826;6.896;2023-07-13T14:42:12;101070.59;;;23.91;60.55
72959;BME280;60008;50.826;6.896;2023-07-13T14:44:57;101068.94;;;23.90;62.27
72959;BME280;60008;50.826;6.896;2023-07-13T14:47:49;101071.69;;;23.66;61.78
72959;BME280;60008;50.826;6.896;2023-07-13T14:50:41;101067.03;;;23.50;63.81
72959;BME280;60008;50.826;6.896;2023-07-13T14:53:32;101065.38;;;23.38;65.61
72959;BME280;60008;50.826;6.896;2023-07-13T14:56:17;101064.91;;;23.41;65.93
72959;BME280;60008;50.826;6.896;2023-07-13T14:59:09;101067.38;;;23.42;66.63
72959;BME280;60008;50.826;6.896;2023-07-13T15:01:55;101073.59;;;23.66;65.11
72959;BME280;60008;50.826;6.896;2023-07-13T15:04:46;101072.81;;;23.94;65.49
72959;BME280;60008;50.826;6.896;2023-07-13T15:07:32;101076.41;;;24.11;61.28
72959;BME280;60008;50.826;6.896;2023-07-13T15:10:33;101068.59;;;24.26;60.57